Time;durP1;ratioP1;P1;durP2;ratioP2;P2;SDS_P1;SDS_P2;PMS_P1;PMS_P2;Temp;Humidity;BMP_temperature;BMP_pressure;BME280_temperature;BME280_humidity;BME280_pressure;Samples;Min_cycle;Max_cycle;Signal;HPM_P1;HPM_P2
2022/08/17 00:01:01;;;;;;;4.15;1.65;;;30.80;99.90;;;;;;6204054;23;20220;-94
2022/08/17 00:03:38;;;;;;;2.08;1.30;;;30.80;99.90;;;;;;6203505;23;20181;-95
2022/08/17 00:06:15;;;;;;;1.63;1.10;;;30.90;99.90;;;;;;6174950;23;20222;-96
2022/08/17 00:09:29;;;;;;;1.40;1.30;;;31.00;99.90;;;;;;6149616;23;20212;-95
2022/08/17 00:12:21;;;;;;;1.83;1.20;;;30.90;99.90;;;;;;6180906;23;20225;-95
2022/08/17 00:15:17;;;;;;;3.15;1.27;;;31.00;99.90;;;;;;6180952;23;20317;-95
2022/08/17 00:17:57;;;;;;;3.22;1.60;;;30.80;99.90;;;;;;6183513;23;20189;-95
2022/08/17 00:20:53;;;;;;;2.38;1.20;;;30.90;99.90;;;;;;6183045;23;20234;-95
2022/08/17 00:23:30;;;;;;;1.60;1.25;;;30.70;99.90;;;;;;6174375;23;20156;-95
2022/08/17 00:26:08;;;;;;;1.42;1.33;;;30.80;99.90;;;;;;6176507;23;20177;-96
2022/08/17 00:28:48;;;;;;;2.15;1.30;;;30.70;99.90;;;;;;6151632;23;20193;-95
2022/08/17 00:31:30;;;;;;;1.85;1.50;;;30.50;99.90;;;;;;6169756;23;20181;-95
2022/08/17 00:34:11;;;;;;;3.17;1.35;;;30.50;99.90;;;;;;6162769;23;20185;-96
2022/08/17 00:36:42;;;;;;;3.13;1.40;;;30.60;99.90;;;;;;6162937;23;20210;-94
2022/08/17 00:42:09;;;;;;;1.23;1.10;;;30.60;99.90;;;;;;6173924;23;20178;-95
2022/08/17 00:44:57;;;;;;;1.85;1.48;;;30.50;99.90;;;;;;6173333;23;20174;-95
2022/08/17 00:47:29;;;;;;;3.03;1.85;;;30.30;99.90;;;;;;6173904;23;20186;-95
2022/08/17 00:50:00;;;;;;;3.50;1.38;;;30.10;99.90;;;;;;6174066;23;20202;-94
2022/08/17 00:55:26;;;;;;;1.60;1.20;;;30.00;99.90;;;;;;6174197;23;20189;-94
2022/08/17 00:58:03;;;;;;;2.95;1.13;;;30.00;99.90;;;;;;6174601;23;20165;-94
2022/08/17 01:01:09;;;;;;;1.10;1.00;;;30.00;99.90;;;;;;6174084;23;20229;-94
2022/08/17 01:03:52;;;;;;;1.47;1.30;;;30.20;99.90;;;;;;6171916;23;20181;-95
2022/08/17 01:06:32;;;;;;;1.43;1.33;;;30.30;99.90;;;;;;6174802;23;20205;-94
2022/08/17 01:09:07;;;;;;;1.67;1.57;;;30.40;99.90;;;;;;6173560;23;20165;-95
2022/08/17 01:11:44;;;;;;;1.83;1.40;;;30.40;99.90;;;;;;6173833;23;20162;-95
2022/08/17 01:14:25;;;;;;;2.53;1.43;;;30.60;99.90;;;;;;6179008;23;20169;-95
2022/08/17 01:17:01;;;;;;;2.13;1.33;;;30.70;99.90;;;;;;6173537;23;20197;-95
2022/08/17 01:19:36;;;;;;;1.63;1.23;;;30.80;99.90;;;;;;6173951;23;20186;-95
2022/08/17 01:22:25;;;;;;;1.83;1.40;;;30.80;99.90;;;;;;6172420;23;20538;-95
2022/08/17 01:25:03;;;;;;;1.90;1.35;;;31.00;99.90;;;;;;6172650;23;20205;-96
2022/08/17 01:27:37;;;;;;;1.30;1.20;;;31.20;99.90;;;;;;6173253;23;20178;-95
2022/08/17 01:30:15;;;;;;;1.00;1.00;;;31.10;99.90;;;;;;6174351;23;20170;-94
2022/08/17 01:33:12;;;;;;;1.50;1.20;;;31.00;99.90;;;;;;6173738;23;20186;-96
2022/08/17 01:35:59;;;;;;;1.67;1.30;;;30.70;99.90;;;;;;6174358;23;20202;-96
2022/08/17 01:38:42;;;;;;;2.33;1.53;;;30.70;99.90;;;;;;6172343;23;20177;-95
2022/08/17 01:41:20;;;;;;;3.87;1.60;;;30.60;99.90;;;;;;6174441;23;20517;-96
2022/08/17 01:43:56;;;;;;;1.37;1.27;;;30.40;99.90;;;;;;6163298;23;20624;-96
2022/08/17 01:46:30;;;;;;;1.37;1.30;;;30.00;99.90;;;;;;6160067;23;20185;-96
2022/08/17 01:49:06;;;;;;;1.70;1.47;;;29.40;99.90;;;;;;6161819;23;20199;-95
2022/08/17 01:51:39;;;;;;;3.03;1.53;;;28.80;99.90;;;;;;6161138;23;20568;-96
2022/08/17 01:54:13;;;;;;;1.40;1.30;;;28.20;99.90;;;;;;6164688;23;20177;-96
2022/08/17 01:59:55;;;;;;;2.03;1.60;;;27.70;99.90;;;;;;6177190;23;20180;-96
2022/08/17 02:02:27;;;;;;;2.20;1.40;;;27.50;99.90;;;;;;6173966;23;20558;-96
2022/08/17 02:05:04;;;;;;;3.20;1.57;;;27.30;99.90;;;;;;6171979;23;20198;-96
2022/08/17 02:07:36;;;;;;;2.07;1.40;;;27.00;99.90;;;;;;6173029;23;20223;-96
2022/08/17 02:10:27;;;;;;;2.13;1.50;;;26.70;99.90;;;;;;6172753;23;20193;-96
2022/08/17 02:13:26;;;;;;;2.40;2.20;;;26.50;99.90;;;;;;6172302;23;20225;-96
2022/08/17 02:15:59;;;;;;;2.40;2.20;;;26.30;99.90;;;;;;6175171;23;20195;-96
2022/08/17 02:18:32;;;;;;;2.93;1.97;;;26.10;99.90;;;;;;6177547;23;20182;-96
2022/08/17 02:21:06;;;;;;;1.90;1.80;;;25.90;99.90;;;;;;6175571;23;20196;-96
2022/08/17 02:23:42;;;;;;;1.73;1.60;;;25.80;99.90;;;;;;6175709;23;20178;-96
2022/08/17 02:26:13;;;;;;;1.47;1.37;;;25.70;99.90;;;;;;6175675;23;20268;-96
2022/08/17 02:28:58;;;;;;;1.63;1.40;;;25.60;99.90;;;;;;6175738;23;20178;-96
2022/08/17 02:31:31;;;;;;;2.23;1.53;;;25.40;99.90;;;;;;6172382;23;20173;-96
2022/08/17 02:34:07;;;;;;;1.60;1.47;;;25.40;99.90;;;;;;6177627;23;20177;-96
2022/08/17 02:36:38;;;;;;;3.00;1.47;;;25.20;99.90;;;;;;6174673;23;20201;-96
2022/08/17 02:42:04;;;;;;;2.03;1.30;;;25.10;99.90;;;;;;6207120;23;20276;-96
2022/08/17 02:44:40;;;;;;;2.20;1.40;;;25.00;99.90;;;;;;6204156;23;20176;-96
2022/08/17 02:47:26;;;;;;;2.20;1.30;;;24.90;99.90;;;;;;6203458;23;20180;-96
2022/08/17 02:49:59;;;;;;;3.13;1.30;;;24.80;99.90;;;;;;6202390;23;20176;-96
2022/08/17 02:52:50;;;;;;;1.77;1.20;;;24.70;99.90;;;;;;6198616;23;20187;-96
2022/08/17 02:55:37;;;;;;;2.83;1.40;;;24.60;99.90;;;;;;6203439;23;20568;-95
2022/08/17 02:58:16;;;;;;;4.93;1.70;;;24.50;99.90;;;;;;6205035;23;20212;-95
2022/08/17 03:01:12;;;;;;;4.13;1.50;;;24.40;99.90;;;;;;6204030;23;20225;-94
2022/08/17 03:03:48;;;;;;;3.37;1.33;;;24.30;99.90;;;;;;6203183;23;20203;-94
2022/08/17 03:06:34;;;;;;;1.57;1.23;;;24.20;99.90;;;;;;6203782;23;20177;-93
2022/08/17 03:09:06;;;;;;;4.77;1.30;;;24.00;99.90;;;;;;6178681;23;20188;-93
2022/08/17 03:11:44;;;;;;;1.30;1.13;;;24.00;99.90;;;;;;6178419;23;20177;-95
2022/08/17 03:14:31;;;;;;;2.53;1.30;;;23.90;99.90;;;;;;6203305;23;20221;-94
2022/08/17 03:17:34;;;;;;;2.03;1.20;;;23.70;99.90;;;;;;6179847;23;20200;-94
2022/08/17 03:20:20;;;;;;;2.13;1.40;;;23.60;99.90;;;;;;6196099;23;20184;-95
2022/08/17 03:22:54;;;;;;;2.37;1.43;;;23.50;99.90;;;;;;6201204;23;20645;-95
2022/08/17 03:25:38;;;;;;;1.50;1.40;;;23.40;99.90;;;;;;6200394;23;20592;-94
2022/08/17 03:28:15;;;;;;;6.83;3.33;;;23.30;99.90;;;;;;6203549;23;20177;-94
2022/08/17 03:30:51;;;;;;;3.00;1.57;;;23.20;99.90;;;;;;6202954;23;20228;-94
2022/08/17 03:33:35;;;;;;;6.17;2.57;;;22.90;99.90;;;;;;6175725;23;20197;-94
2022/08/17 03:38:55;;;;;;;1.50;1.40;;;22.50;99.90;;;;;;6202096;23;20571;-94
2022/08/17 03:41:35;;;;;;;1.63;1.23;;;22.40;99.90;;;;;;6179461;23;20201;-92
2022/08/17 03:44:07;;;;;;;3.30;1.27;;;22.40;99.90;;;;;;6204855;23;20221;-93
2022/08/17 03:58:23;;;;;;;1.60;1.00;;;22.10;99.90;;;;;;6205105;23;20183;-94
2022/08/17 04:01:08;;;;;;;2.30;1.17;;;22.00;99.90;;;;;;6198124;23;20180;-96
2022/08/17 04:03:40;;;;;;;2.27;1.20;;;21.90;99.90;;;;;;6202086;23;20228;-94
2022/08/17 04:06:37;;;;;;;1.73;1.00;;;21.90;99.90;;;;;;6203767;23;20188;-95
2022/08/17 04:12:10;;;;;;;1.33;1.00;;;21.70;99.90;;;;;;6203111;23;20223;-94
2022/08/17 04:14:46;;;;;;;1.10;0.80;;;21.60;99.90;;;;;;6204312;23;20239;-94
2022/08/17 04:17:27;;;;;;;0.90;0.90;;;21.60;99.90;;;;;;6204312;23;20227;-94
2022/08/17 04:20:00;;;;;;;1.33;0.90;;;21.50;99.90;;;;;;6204476;23;20180;-94
2022/08/17 04:22:38;;;;;;;1.10;1.00;;;21.50;99.90;;;;;;6178330;23;20205;-95
2022/08/17 04:25:24;;;;;;;1.00;0.90;;;21.30;99.90;;;;;;6198078;23;20228;-94
2022/08/17 04:28:01;;;;;;;1.37;1.00;;;21.30;99.90;;;;;;6180115;23;20199;-94
2022/08/17 04:30:43;;;;;;;2.10;1.20;;;21.20;99.90;;;;;;6204110;23;20177;-95
2022/08/17 04:33:29;;;;;;;1.07;0.80;;;21.20;99.90;;;;;;6176768;23;20643;-95
2022/08/17 04:36:03;;;;;;;1.20;1.00;;;21.20;99.90;;;;;;6203472;23;20183;-94
2022/08/17 04:38:44;;;;;;;2.00;1.07;;;21.10;99.90;;;;;;6205038;23;20173;-94
2022/08/17 04:44:13;;;;;;;1.80;1.03;;;20.90;99.90;;;;;;6142589;23;20654;-95
2022/08/17 04:47:06;;;;;;;1.30;1.07;;;20.90;99.90;;;;;;6193499;23;20181;-94
2022/08/17 04:49:40;;;;;;;1.30;1.00;;;20.80;99.90;;;;;;6193114;23;20172;-94
2022/08/17 04:52:12;;;;;;;2.17;0.93;;;20.70;99.90;;;;;;6193016;23;20428;-94
2022/08/17 04:55:07;;;;;;;1.30;0.80;;;20.70;99.90;;;;;;6192192;23;20185;-95
2022/08/17 04:57:40;;;;;;;0.90;0.77;;;20.60;99.90;;;;;;6195070;23;20207;-93
2022/08/17 05:00:15;;;;;;;1.13;0.90;;;20.60;99.90;;;;;;6195502;23;20173;-93
2022/08/17 05:02:48;;;;;;;2.10;0.90;;;20.60;99.90;;;;;;6203478;23;20197;-94
2022/08/17 05:05:22;;;;;;;1.83;0.90;;;20.50;99.90;;;;;;6212565;23;20169;-95
2022/08/17 05:07:54;;;;;;;0.90;0.90;;;20.50;99.90;;;;;;6212656;23;20164;-94
2022/08/17 05:10:28;;;;;;;2.60;1.10;;;20.40;99.90;;;;;;6211092;23;20180;-95
2022/08/17 05:13:03;;;;;;;1.33;1.00;;;20.20;99.90;;;;;;6199287;23;20228;-94
2022/08/17 05:15:37;;;;;;;1.30;0.87;;;20.30;99.90;;;;;;6199332;23;20180;-94
2022/08/17 05:18:15;;;;;;;1.80;0.90;;;20.30;99.90;;;;;;6195131;23;20208;-94
2022/08/17 05:20:47;;;;;;;3.47;0.93;;;20.20;99.90;;;;;;6171998;23;20184;-94
2022/08/17 05:23:23;;;;;;;4.23;1.10;;;20.20;99.90;;;;;;6194712;23;20199;-94
2022/08/17 05:26:09;;;;;;;2.27;1.20;;;20.20;99.90;;;;;;6166967;23;20256;-94
2022/08/17 05:28:57;;;;;;;1.67;0.90;;;20.10;99.90;;;;;;6191970;23;20177;-94
2022/08/17 05:31:32;;;;;;;3.77;1.23;;;20.00;99.90;;;;;;6192314;23;20612;-95
2022/08/17 05:34:07;;;;;;;3.23;1.00;;;20.00;99.90;;;;;;6194868;23;20237;-95
2022/08/17 05:36:43;;;;;;;1.50;1.10;;;19.90;99.90;;;;;;6191193;23;20184;-94
2022/08/17 05:39:17;;;;;;;0.90;0.70;;;19.90;99.90;;;;;;6173977;23;20173;-95
2022/08/17 05:41:51;;;;;;;2.57;1.00;;;19.80;99.90;;;;;;6190203;23;20177;-94
2022/08/17 05:44:23;;;;;;;1.13;1.00;;;19.80;99.90;;;;;;6192893;23;20180;-94
2022/08/17 05:46:55;;;;;;;1.63;0.90;;;19.80;99.90;;;;;;6196243;23;20515;-95
2022/08/17 05:49:34;;;;;;;2.80;1.00;;;19.80;99.90;;;;;;6193613;23;20177;-95
2022/08/17 05:52:18;;;;;;;0.83;0.70;;;19.70;99.90;;;;;;6209401;23;20177;-93
2022/08/17 05:55:05;;;;;;;2.07;0.90;;;19.70;99.90;;;;;;6194684;23;20181;-94
2022/08/17 05:58:04;;;;;;;2.83;1.07;;;19.60;99.90;;;;;;6196967;23;20208;-94
2022/08/17 06:00:44;;;;;;;2.17;0.83;;;19.60;99.90;;;;;;6210351;23;20165;-94
2022/08/17 06:03:30;;;;;;;2.50;0.90;;;19.50;99.90;;;;;;6210748;23;20197;-94
2022/08/17 06:06:23;;;;;;;1.10;1.00;;;19.50;99.90;;;;;;6186699;23;20169;-93
2022/08/17 06:09:14;;;;;;;1.47;0.93;;;19.40;99.90;;;;;;6211335;23;20168;-95
2022/08/17 06:11:59;;;;;;;0.97;0.87;;;19.30;99.90;;;;;;6211278;23;20212;-93
2022/08/17 06:14:49;;;;;;;1.33;0.80;;;19.30;99.90;;;;;;6211950;23;20192;-95
2022/08/17 06:17:23;;;;;;;2.43;1.13;;;19.20;99.90;;;;;;6212227;23;20213;-94
2022/08/17 06:19:58;;;;;;;1.97;0.80;;;19.20;99.90;;;;;;6212231;23;20223;-94
2022/08/17 06:22:33;;;;;;;1.17;0.77;;;19.10;99.90;;;;;;6209463;23;20177;-94
2022/08/17 06:25:12;;;;;;;1.73;1.13;;;19.10;99.90;;;;;;6193970;23;20378;-95
2022/08/17 06:27:48;;;;;;;1.80;1.10;;;19.10;99.90;;;;;;6193533;23;20177;-95
2022/08/17 06:30:27;;;;;;;2.00;1.10;;;19.10;99.90;;;;;;6166072;23;20194;-94
2022/08/17 06:33:31;;;;;;;1.67;1.03;;;19.10;99.90;;;;;;6193021;23;20281;-94
2022/08/17 06:36:15;;;;;;;2.13;1.20;;;19.00;99.90;;;;;;6194417;23;20165;-95
2022/08/17 06:38:56;;;;;;;1.60;1.00;;;19.00;99.90;;;;;;6190887;23;20200;-94
2022/08/17 06:41:36;;;;;;;1.07;0.97;;;18.90;99.90;;;;;;6195098;23;20223;-94
2022/08/17 06:44:14;;;;;;;3.27;1.10;;;18.90;99.90;;;;;;6190837;23;20693;-94
2022/08/17 06:47:18;;;;;;;2.93;0.93;;;18.80;99.90;;;;;;6192692;23;20211;-94
2022/08/17 06:50:14;;;;;;;1.60;1.00;;;18.80;99.90;;;;;;6171117;23;20177;-95
2022/08/17 06:52:54;;;;;;;2.57;1.07;;;18.80;99.90;;;;;;6194231;23;20220;-95
2022/08/17 06:55:37;;;;;;;2.27;1.03;;;18.80;99.90;;;;;;6192424;23;20181;-95
2022/08/17 06:58:10;;;;;;;2.20;1.07;;;18.70;99.90;;;;;;6193128;23;20211;-94
2022/08/17 07:00:48;;;;;;;2.17;1.10;;;18.70;99.90;;;;;;6194399;23;20196;-93
2022/08/17 07:03:53;;;;;;;2.33;1.27;;;18.60;99.90;;;;;;6201581;23;20189;-94
2022/08/17 07:06:31;;;;;;;1.57;0.90;;;18.60;99.90;;;;;;6204402;23;20200;-94
2022/08/17 07:09:13;;;;;;;4.87;1.00;;;18.60;99.90;;;;;;6181850;23;20179;-94
2022/08/17 07:11:51;;;;;;;1.10;1.00;;;18.50;99.90;;;;;;6201965;23;20176;-94
2022/08/17 07:14:39;;;;;;;1.87;1.20;;;18.50;99.90;;;;;;6202711;23;20165;-94
2022/08/17 07:17:17;;;;;;;2.50;1.07;;;18.40;99.90;;;;;;6201058;23;20161;-94
2022/08/17 07:23:12;;;;;;;1.77;0.97;;;18.40;99.90;;;;;;6207108;23;20208;-95
2022/08/17 07:25:44;;;;;;;3.50;1.57;;;18.40;99.90;;;;;;6196656;23;20169;-94
2022/08/17 07:28:21;;;;;;;2.67;1.20;;;18.50;99.90;;;;;;6190450;23;20173;-94
2022/08/17 07:30:55;;;;;;;3.23;1.20;;;18.40;99.90;;;;;;6189798;23;20181;-94
2022/08/17 07:33:31;;;;;;;1.83;1.10;;;18.30;99.90;;;;;;6198465;23;20220;-93
2022/08/17 07:36:32;;;;;;;2.00;0.90;;;18.30;99.90;;;;;;6194324;23;20232;-94
2022/08/17 07:39:04;;;;;;;1.63;0.83;;;18.30;99.90;;;;;;6191472;23;20728;-93
2022/08/17 07:41:40;;;;;;;2.80;1.00;;;18.30;99.90;;;;;;6190901;23;20181;-94
2022/08/17 07:44:28;;;;;;;2.00;1.10;;;18.20;99.90;;;;;;6191089;23;20184;-94
2022/08/17 07:49:48;;;;;;;1.43;1.00;;;18.20;99.90;;;;;;6196958;23;20494;-94
2022/08/17 07:52:32;;;;;;;1.70;1.07;;;18.20;99.90;;;;;;6191696;23;20200;-94
2022/08/17 07:55:29;;;;;;;2.43;0.97;;;18.20;99.90;;;;;;6194344;23;20205;-94
2022/08/17 07:58:02;;;;;;;1.07;0.90;;;18.10;99.90;;;;;;6178542;23;20168;-94
2022/08/17 08:00:33;;;;;;;1.73;0.93;;;18.10;99.90;;;;;;6211392;23;20231;-94
2022/08/17 08:03:17;;;;;;;2.93;1.30;;;18.10;99.90;;;;;;6209291;23;20208;-94
2022/08/17 08:05:54;;;;;;;1.63;0.70;;;18.10;99.90;;;;;;6206142;23;20166;-94
2022/08/17 08:08:33;;;;;;;3.00;1.10;;;18.10;99.90;;;;;;6212356;23;20188;-94
2022/08/17 08:11:10;;;;;;;1.00;0.90;;;18.10;99.90;;;;;;6211232;23;20186;-94
2022/08/17 08:13:44;;;;;;;2.80;1.10;;;18.10;99.90;;;;;;6211645;23;20177;-94
2022/08/17 08:16:28;;;;;;;2.63;0.90;;;18.00;99.90;;;;;;6212365;23;20163;-94
2022/08/17 08:19:01;;;;;;;1.47;1.07;;;17.90;99.90;;;;;;6212552;23;20252;-94
2022/08/17 08:21:45;;;;;;;3.17;1.20;;;17.90;99.90;;;;;;6211566;23;20351;-95
2022/08/17 08:24:54;;;;;;;3.73;1.20;;;17.90;99.90;;;;;;6212957;23;20157;-93
2022/08/17 08:27:38;;;;;;;1.97;0.87;;;17.90;99.90;;;;;;6212376;23;20165;-94
2022/08/17 08:30:13;;;;;;;2.47;1.00;;;17.80;99.90;;;;;;6212141;23;20177;-94
2022/08/17 08:32:57;;;;;;;2.30;1.17;;;17.80;99.90;;;;;;6211251;23;20232;-93
2022/08/17 08:35:33;;;;;;;1.90;1.10;;;17.70;99.90;;;;;;6207011;23;20177;-94
2022/08/17 08:38:16;;;;;;;1.53;0.93;;;17.60;99.90;;;;;;6195040;23;20677;-93
2022/08/17 08:41:16;;;;;;;1.20;1.00;;;17.60;99.90;;;;;;6194745;23;20177;-94
2022/08/17 08:44:00;;;;;;;2.27;1.10;;;17.60;99.90;;;;;;6194822;23;20189;-93
2022/08/17 08:46:40;;;;;;;1.83;1.03;;;17.50;99.90;;;;;;6196463;23;20223;-94
2022/08/17 08:49:37;;;;;;;3.50;1.80;;;17.50;99.90;;;;;;6171076;23;20251;-93
2022/08/17 08:52:52;;;;;;;2.10;0.97;;;17.50;99.90;;;;;;6196742;23;20209;-94
2022/08/17 08:55:34;;;;;;;2.23;1.30;;;17.40;99.90;;;;;;6194469;23;20177;-94
2022/08/17 08:58:14;;;;;;;1.93;1.33;;;17.40;99.90;;;;;;6193888;23;20184;-94
2022/08/17 09:01:11;;;;;;;1.43;1.20;;;17.30;99.90;;;;;;6192714;23;20208;-95
2022/08/17 09:04:01;;;;;;;3.93;1.07;;;17.30;99.90;;;;;;6192958;23;20184;-94
2022/08/17 09:07:06;;;;;;;2.13;1.37;;;17.30;99.90;;;;;;6192538;23;20260;-94
2022/08/17 09:09:49;;;;;;;2.57;1.50;;;17.30;99.90;;;;;;6191529;23;20216;-94
2022/08/17 09:12:34;;;;;;;2.27;1.13;;;17.20;99.90;;;;;;6192175;23;20177;-95
2022/08/17 09:15:15;;;;;;;1.67;1.20;;;17.20;99.90;;;;;;6193787;23;20166;-94
2022/08/17 09:17:54;;;;;;;2.13;1.30;;;17.20;99.90;;;;;;6194892;23;20180;-95
2022/08/17 09:20:51;;;;;;;2.47;1.10;;;17.20;99.90;;;;;;6196325;23;20201;-93
2022/08/17 09:23:32;;;;;;;2.17;1.20;;;17.20;99.90;;;;;;6194494;23;20180;-95
2022/08/17 09:26:15;;;;;;;1.80;1.27;;;17.20;99.90;;;;;;6199234;23;20220;-94
2022/08/17 09:28:51;;;;;;;2.93;1.20;;;17.20;99.90;;;;;;6196077;23;20232;-94
2022/08/17 09:31:34;;;;;;;4.80;1.30;;;17.30;99.90;;;;;;6193859;23;20177;-95
2022/08/17 09:34:25;;;;;;;2.17;1.30;;;17.20;99.90;;;;;;6195062;23;20180;-94
2022/08/17 09:37:11;;;;;;;1.20;1.10;;;17.20;99.90;;;;;;6195372;23;20231;-94
2022/08/17 09:39:49;;;;;;;3.07;1.37;;;17.20;99.90;;;;;;6191162;23;20590;-94
2022/08/17 09:42:27;;;;;;;2.20;1.40;;;17.10;99.90;;;;;;6190468;23;20196;-94
2022/08/17 09:45:09;;;;;;;1.97;1.40;;;17.10;99.90;;;;;;6193637;23;20177;-94
2022/08/17 09:47:49;;;;;;;2.13;1.20;;;17.10;99.90;;;;;;6195618;23;20177;-94
2022/08/17 09:50:26;;;;;;;2.10;1.13;;;17.00;99.90;;;;;;6190255;23;20248;-94
2022/08/17 09:53:17;;;;;;;2.20;1.10;;;16.90;99.90;;;;;;6190202;23;20264;-94
2022/08/17 09:56:04;;;;;;;1.83;1.20;;;16.90;99.90;;;;;;6192045;23;20177;-94
2022/08/17 09:58:46;;;;;;;1.77;1.30;;;16.90;99.90;;;;;;6195774;23;20238;-94
2022/08/17 10:01:27;;;;;;;3.33;1.33;;;16.80;99.90;;;;;;6196227;23;20201;-94
2022/08/17 10:04:31;;;;;;;3.00;1.37;;;16.80;99.90;;;;;;6196101;23;20513;-93
2022/08/17 10:07:08;;;;;;;1.47;1.10;;;16.80;99.90;;;;;;6191626;23;20275;-94
2022/08/17 10:09:51;;;;;;;2.10;1.30;;;16.80;99.90;;;;;;6195580;23;20709;-94
2022/08/17 10:12:38;;;;;;;3.30;1.30;;;16.80;99.90;;;;;;6200755;23;20180;-94
2022/08/17 10:15:26;;;;;;;1.87;1.40;;;16.80;99.90;;;;;;6207651;23;20176;-95
2022/08/17 10:26:56;;;;;;;1.40;1.30;;;16.70;99.90;;;;;;6194508;23;20239;-94
2022/08/17 10:29:34;;;;;;;2.43;1.50;;;16.60;99.90;;;;;;6197721;23;20176;-95
2022/08/17 10:32:27;;;;;;;3.13;1.20;;;16.60;99.90;;;;;;6191807;23;20181;-94
2022/08/17 10:35:25;;;;;;;2.47;1.20;;;16.60;99.90;;;;;;6191772;23;20180;-94
2022/08/17 10:38:35;;;;;;;3.20;1.40;;;16.60;99.90;;;;;;6196433;23;20181;-94
2022/08/17 10:41:30;;;;;;;2.00;1.20;;;16.60;99.90;;;;;;6193009;23;20635;-95
2022/08/17 10:44:13;;;;;;;3.33;1.30;;;16.60;99.90;;;;;;6193272;23;20631;-94
2022/08/17 10:47:13;;;;;;;3.77;1.43;;;16.70;99.90;;;;;;6189612;23;20177;-93
2022/08/17 10:49:48;;;;;;;4.93;1.80;;;16.70;99.90;;;;;;6189272;23;20177;-94
2022/08/17 10:52:55;;;;;;;2.27;1.47;;;16.70;99.90;;;;;;6196031;23;20685;-94
2022/08/17 10:55:27;;;;;;;1.40;1.30;;;16.80;99.90;;;;;;6193837;23;20181;-94
2022/08/17 10:58:23;;;;;;;3.27;1.53;;;16.80;99.90;;;;;;6197418;23;20199;-94
2022/08/17 11:01:02;;;;;;;2.40;1.40;;;16.80;99.90;;;;;;6195314;23;20209;-94
2022/08/17 11:03:34;;;;;;;2.43;1.70;;;16.80;99.90;;;;;;6194845;23;20165;-93
2022/08/17 11:06:19;;;;;;;4.93;1.80;;;16.80;99.90;;;;;;6200923;23;20546;-93
2022/08/17 11:09:18;;;;;;;2.30;1.40;;;16.80;99.90;;;;;;6199102;23;20180;-94
2022/08/17 11:12:14;;;;;;;3.90;1.67;;;16.80;99.90;;;;;;6198432;23;20176;-94
2022/08/17 11:18:14;;;;;;;1.63;1.27;;;16.80;99.90;;;;;;6197224;23;20176;-95
2022/08/17 11:21:26;;;;;;;3.13;1.53;;;16.80;99.90;;;;;;6194503;23;20274;-94
2022/08/17 11:24:19;;;;;;;0.90;0.90;;;16.80;99.90;;;;;;6195626;23;20224;-94
2022/08/17 11:27:08;;;;;;;2.47;1.30;;;16.70;99.90;;;;;;6193796;23;20209;-93
2022/08/17 11:29:53;;;;;;;2.17;1.30;;;16.60;99.90;;;;;;6195722;23;20516;-93
2022/08/17 11:32:40;;;;;;;2.27;1.27;;;16.70;99.90;;;;;;6190343;23;20240;-93
2022/08/17 11:35:33;;;;;;;5.33;1.23;;;16.60;99.90;;;;;;6195952;23;20173;-93
2022/08/17 11:38:17;;;;;;;2.00;1.40;;;16.60;99.90;;;;;;6196079;23;20162;-93
2022/08/17 11:41:10;;;;;;;2.23;1.57;;;16.50;99.90;;;;;;6192513;23;20523;-93
2022/08/17 11:44:11;;;;;;;2.80;1.60;;;16.50;99.90;;;;;;6191822;23;20652;-92
2022/08/17 11:53:07;;;;;;;2.83;1.33;;;16.40;99.90;;;;;;6196554;23;20173;-93
2022/08/17 11:56:05;;;;;;;3.10;1.50;;;16.40;99.90;;;;;;6192971;23;20183;-93
2022/08/17 11:58:42;;;;;;;2.40;1.60;;;16.40;99.90;;;;;;6195633;23;20499;-93
2022/08/17 12:01:14;;;;;;;2.17;1.47;;;16.30;99.90;;;;;;6190163;23;20208;-94
2022/08/17 12:03:56;;;;;;;2.67;1.40;;;16.30;99.90;;;;;;6195572;23;20209;-94
2022/08/17 12:06:46;;;;;;;3.43;1.50;;;16.30;99.90;;;;;;6197797;23;20526;-93
2022/08/17 12:09:23;;;;;;;2.63;1.57;;;16.20;99.90;;;;;;6198093;23;20177;-93
2022/08/17 12:11:58;;;;;;;3.20;1.23;;;16.20;99.90;;;;;;6195019;23;20181;-94
2022/08/17 12:14:49;;;;;;;3.10;1.57;;;16.20;99.90;;;;;;6198155;23;20193;-94
2022/08/17 12:17:39;;;;;;;4.83;1.73;;;16.20;99.90;;;;;;6190637;23;20165;-92
2022/08/17 12:20:28;;;;;;;1.93;1.33;;;16.20;99.90;;;;;;6198397;23;20240;-93
2022/08/17 12:23:07;;;;;;;2.63;1.57;;;16.10;99.90;;;;;;6192809;23;20176;-92
2022/08/17 12:25:44;;;;;;;3.27;1.40;;;16.10;99.90;;;;;;6195610;23;20177;-93
2022/08/17 12:28:26;;;;;;;4.20;1.50;;;15.90;99.90;;;;;;6197470;23;20619;-93
2022/08/17 12:31:01;;;;;;;2.10;1.40;;;16.10;99.90;;;;;;6194913;23;20173;-93
2022/08/17 12:33:33;;;;;;;7.23;1.63;;;16.00;99.90;;;;;;6198957;23;20239;-93
2022/08/17 12:36:14;;;;;;;2.57;1.67;;;16.00;99.90;;;;;;6193142;23;20165;-93
2022/08/17 12:39:00;;;;;;;3.00;1.73;;;16.00;99.90;;;;;;6194915;23;20176;-93
2022/08/17 12:41:48;;;;;;;3.10;1.73;;;16.00;99.90;;;;;;6192102;23;20512;-93
2022/08/17 12:44:22;;;;;;;3.03;1.80;;;16.00;99.90;;;;;;6195434;23;20276;-93
2022/08/17 12:46:56;;;;;;;2.90;1.40;;;15.90;99.90;;;;;;6192294;23;20177;-92
2022/08/17 12:49:32;;;;;;;4.23;1.87;;;15.90;99.90;;;;;;6193092;23;20176;-92
2022/08/17 12:52:14;;;;;;;5.27;1.90;;;15.90;99.90;;;;;;6189725;23;20208;-93
2022/08/17 12:54:58;;;;;;;2.07;1.43;;;15.90;99.90;;;;;;6191134;23;20170;-94
2022/08/17 12:57:33;;;;;;;2.47;1.80;;;15.90;99.90;;;;;;6192815;23;20180;-93
2022/08/17 13:00:16;;;;;;;3.03;1.60;;;15.90;99.90;;;;;;6191375;23;20192;-93
2022/08/17 13:02:49;;;;;;;2.80;1.67;;;15.90;99.90;;;;;;6199857;23;20177;-93
2022/08/17 13:05:26;;;;;;;2.63;1.50;;;15.90;99.90;;;;;;6192419;23;20181;-93
2022/08/17 13:08:13;;;;;;;5.13;1.80;;;15.80;99.90;;;;;;6195282;23;20177;-93
2022/08/17 13:10:45;;;;;;;4.37;1.60;;;15.90;99.90;;;;;;6190906;23;20223;-93
2022/08/17 13:13:25;;;;;;;2.27;2.07;;;15.90;99.90;;;;;;6189470;23;20180;-93
2022/08/17 13:15:59;;;;;;;2.50;1.67;;;15.80;99.90;;;;;;6190891;23;20165;-93
2022/08/17 13:18:42;;;;;;;2.57;1.63;;;15.80;99.90;;;;;;6189819;23;20177;-94
2022/08/17 13:21:22;;;;;;;2.33;1.63;;;15.80;99.90;;;;;;6189419;23;20579;-93
2022/08/17 13:24:00;;;;;;;4.07;1.70;;;15.80;99.90;;;;;;6189823;23;20181;-93
2022/08/17 13:26:36;;;;;;;5.87;1.93;;;15.90;99.90;;;;;;6190482;23;20242;-93
2022/08/17 13:29:22;;;;;;;3.00;1.63;;;15.90;99.90;;;;;;6189939;23;20173;-93
2022/08/17 13:31:57;;;;;;;4.33;1.90;;;15.80;99.90;;;;;;6189610;23;20176;-94
2022/08/17 13:34:38;;;;;;;5.07;2.00;;;15.80;99.90;;;;;;6191513;23;20173;-93
2022/08/17 13:37:33;;;;;;;2.90;1.80;;;15.80;99.90;;;;;;6190694;23;20224;-93
2022/08/17 13:40:32;;;;;;;3.40;1.80;;;15.90;99.90;;;;;;6190965;23;20571;-94
2022/08/17 13:43:04;;;;;;;1.93;1.60;;;15.90;99.90;;;;;;6189575;23;20177;-93
2022/08/17 13:45:51;;;;;;;4.03;1.90;;;15.90;99.90;;;;;;6167329;23;20241;-93
2022/08/17 13:48:32;;;;;;;3.77;1.90;;;15.90;99.90;;;;;;6190453;23;20208;-94
2022/08/17 13:51:33;;;;;;;2.50;1.70;;;15.90;99.90;;;;;;6195211;23;20185;-94
2022/08/17 13:54:20;;;;;;;4.83;1.90;;;15.90;99.90;;;;;;6202340;23;20172;-93
2022/08/17 13:57:06;;;;;;;3.80;1.43;;;16.00;99.90;;;;;;6175727;23;20177;-93
2022/08/17 13:59:40;;;;;;;2.47;1.83;;;15.90;99.90;;;;;;6191247;23;20200;-93
2022/08/17 14:02:25;;;;;;;3.90;2.10;;;16.00;99.90;;;;;;6188594;23;20729;-93
2022/08/17 14:05:00;;;;;;;2.70;1.80;;;16.00;99.90;;;;;;6189593;23;20612;-94
2022/08/17 14:07:38;;;;;;;2.83;2.03;;;16.00;99.90;;;;;;6189969;23;20173;-93
2022/08/17 14:10:15;;;;;;;2.97;1.60;;;16.00;99.90;;;;;;6189984;23;20532;-93
2022/08/17 14:12:49;;;;;;;2.00;1.70;;;16.10;99.90;;;;;;6188705;23;20184;-94
2022/08/17 14:15:23;;;;;;;3.83;2.07;;;16.10;99.90;;;;;;6189632;23;20183;-93
2022/08/17 14:18:16;;;;;;;3.37;2.00;;;16.20;99.90;;;;;;6189983;23;20227;-93
2022/08/17 14:21:09;;;;;;;5.57;2.10;;;16.20;99.90;;;;;;6189872;23;20461;-94
2022/08/17 14:23:41;;;;;;;3.17;2.10;;;16.30;99.90;;;;;;6189635;23;20185;-94
2022/08/17 14:26:23;;;;;;;5.07;1.60;;;16.30;99.90;;;;;;6189300;23;20203;-94
2022/08/17 14:28:57;;;;;;;4.60;1.90;;;16.40;99.90;;;;;;6189299;23;20188;-93
2022/08/17 14:31:30;;;;;;;2.37;1.67;;;16.40;99.90;;;;;;6163365;23;20176;-93
2022/08/17 14:34:07;;;;;;;3.03;2.07;;;16.50;99.90;;;;;;6189576;23;20228;-93
2022/08/17 14:36:39;;;;;;;2.60;1.80;;;16.50;99.90;;;;;;6164986;23;20201;-94
2022/08/17 14:39:18;;;;;;;4.63;2.00;;;16.60;99.90;;;;;;6189340;23;20177;-93
2022/08/17 14:41:49;;;;;;;6.57;1.83;;;16.60;99.90;;;;;;6188692;23;20205;-93
2022/08/17 14:44:22;;;;;;;3.73;1.93;;;16.70;99.90;;;;;;6192760;23;20177;-93
2022/08/17 14:46:54;;;;;;;4.10;1.90;;;16.80;99.90;;;;;;6191296;23;20176;-93
2022/08/17 14:49:26;;;;;;;5.40;2.23;;;16.90;99.90;;;;;;6192851;23;20612;-93
2022/08/17 14:51:58;;;;;;;4.50;1.77;;;16.90;99.90;;;;;;6189435;23;20173;-93
2022/08/17 14:54:30;;;;;;;2.10;1.87;;;17.00;99.90;;;;;;6165969;23;20177;-94
2022/08/17 14:57:03;;;;;;;4.50;1.70;;;17.00;99.90;;;;;;6166373;23;20562;-94
2022/08/17 14:59:59;;;;;;;5.33;1.80;;;17.10;99.90;;;;;;6199812;23;20208;-93